Time;durP1;ratioP1;P1;durP2;ratioP2;P2;SDS_P1;SDS_P2;PMS_P1;PMS_P2;Temp;Humidity;BMP_temperature;BMP_pressure;BME280_temperature;BME280_humidity;BME280_pressure;Samples;Min_cycle;Max_cycle;Signal;HPM_P1;HPM_P2
2021/07/17 00:02:00;;;;;;;44.07;40.00;;;18.60;99.90;;;;;;4954476;29;20966;-73
2021/07/17 00:04:27;;;;;;;43.30;39.50;;;18.60;99.90;;;;;;4954414;29;20515;-73
2021/07/17 00:06:53;;;;;;;41.87;37.70;;;18.60;99.90;;;;;;4954784;29;20457;-72
2021/07/17 00:09:20;;;;;;;41.43;37.93;;;18.60;99.90;;;;;;4954730;29;20460;-72
2021/07/17 00:11:48;;;;;;;40.33;36.73;;;18.60;99.90;;;;;;4954693;29;20449;-72
2021/07/17 00:14:15;;;;;;;39.13;35.53;;;18.60;99.90;;;;;;4954515;29;20794;-73
2021/07/17 00:16:42;;;;;;;41.03;37.10;;;18.60;99.90;;;;;;4954465;29;20515;-72
2021/07/17 00:19:09;;;;;;;40.07;35.87;;;18.70;99.90;;;;;;4954144;29;20517;-73
2021/07/17 00:21:36;;;;;;;41.30;37.80;;;18.60;99.90;;;;;;4954737;29;20826;-73
2021/07/17 00:24:03;;;;;;;39.60;36.17;;;18.80;99.90;;;;;;4954610;29;20453;-73
2021/07/17 00:26:29;;;;;;;41.80;37.80;;;18.70;99.90;;;;;;4954611;29;20449;-73
2021/07/17 00:28:57;;;;;;;39.67;35.90;;;18.70;99.90;;;;;;4954221;29;20449;-72
2021/07/17 00:31:24;;;;;;;39.97;35.93;;;18.70;99.90;;;;;;4954318;29;20464;-73
2021/07/17 00:33:51;;;;;;;40.87;37.13;;;18.60;99.90;;;;;;4954167;29;20456;-73
2021/07/17 00:36:17;;;;;;;40.00;36.60;;;18.70;99.90;;;;;;4954472;29;20456;-74
2021/07/17 00:38:44;;;;;;;40.97;37.10;;;18.80;99.90;;;;;;4954124;29;20488;-73
2021/07/17 00:41:11;;;;;;;39.97;36.37;;;18.70;99.90;;;;;;4953529;29;20551;-73
2021/07/17 00:43:38;;;;;;;40.20;36.50;;;18.70;99.90;;;;;;4953827;29;20457;-73
2021/07/17 00:46:06;;;;;;;39.53;35.67;;;18.70;99.90;;;;;;4953595;29;20492;-73
2021/07/17 00:48:33;;;;;;;39.37;35.87;;;18.60;99.90;;;;;;4954427;29;20934;-73
2021/07/17 00:50:59;;;;;;;40.73;37.03;;;18.60;99.90;;;;;;4953980;29;20515;-73
2021/07/17 00:53:26;;;;;;;38.17;34.70;;;18.50;99.90;;;;;;4953625;29;20860;-73
2021/07/17 00:55:55;;;;;;;43.50;36.13;;;18.60;99.90;;;;;;4953565;29;20973;-72
2021/07/17 00:58:26;;;;;;;40.50;36.70;;;18.50;99.90;;;;;;4953558;29;21014;-72
2021/07/17 01:00:53;;;;;;;39.57;35.37;;;18.40;99.90;;;;;;4953720;29;20822;-72
2021/07/17 01:03:21;;;;;;;39.47;35.87;;;18.40;99.90;;;;;;4953892;29;21006;-73
2021/07/17 01:05:48;;;;;;;39.30;35.60;;;18.50;99.90;;;;;;4952635;28;20484;-73
2021/07/17 01:08:15;;;;;;;38.47;34.77;;;18.40;99.90;;;;;;4953098;29;20441;-73
2021/07/17 01:10:42;;;;;;;36.77;33.37;;;18.50;99.90;;;;;;4953111;29;20512;-72
2021/07/17 01:13:09;;;;;;;38.90;35.00;;;18.40;99.90;;;;;;4952888;29;20544;-72
2021/07/17 01:15:36;;;;;;;37.83;34.13;;;18.40;99.90;;;;;;4952941;29;20494;-73
2021/07/17 01:18:03;;;;;;;36.73;33.17;;;18.40;99.90;;;;;;4952981;29;20495;-73
2021/07/17 01:20:33;;;;;;;41.20;37.20;;;18.50;99.90;;;;;;4952994;29;20453;-72
2021/07/17 01:23:01;;;;;;;39.20;34.90;;;18.40;99.90;;;;;;4952809;29;21058;-72
2021/07/17 01:25:31;;;;;;;38.90;35.30;;;18.50;99.90;;;;;;4952730;29;20453;-72
2021/07/17 01:27:59;;;;;;;38.53;34.83;;;18.50;99.90;;;;;;4952849;29;20440;-72
2021/07/17 01:30:28;;;;;;;39.00;35.30;;;18.50;99.90;;;;;;4952740;29;20509;-71
2021/07/17 01:32:55;;;;;;;37.00;33.50;;;18.50;99.90;;;;;;4952745;29;20475;-72
2021/07/17 01:35:22;;;;;;;38.33;34.23;;;18.50;99.90;;;;;;4952806;29;20555;-72
2021/07/17 01:37:49;;;;;;;35.60;32.20;;;18.40;99.90;;;;;;4952725;29;20493;-73
2021/07/17 01:40:21;;;;;;;40.77;36.13;;;18.40;99.90;;;;;;4952882;29;20483;-72
2021/07/17 01:42:49;;;;;;;38.30;34.47;;;18.40;99.90;;;;;;4952946;29;20939;-72
2021/07/17 01:45:23;;;;;;;39.27;35.03;;;18.50;99.90;;;;;;4952584;29;20485;-72
2021/07/17 01:47:51;;;;;;;37.50;33.83;;;18.40;99.90;;;;;;4933381;29;20843;-72
2021/07/17 01:50:18;;;;;;;38.13;34.60;;;18.40;99.90;;;;;;4933566;29;20513;-72
2021/07/17 01:52:49;;;;;;;40.93;36.73;;;18.40;99.90;;;;;;4933672;29;20454;-72
2021/07/17 01:55:17;;;;;;;38.03;34.40;;;18.50;99.90;;;;;;4933368;29;20470;-72
2021/07/17 01:57:45;;;;;;;37.57;34.27;;;18.50;99.90;;;;;;4933163;29;20485;-73
2021/07/17 02:00:13;;;;;;;37.83;34.63;;;18.50;99.90;;;;;;4933129;29;21324;-72
2021/07/17 02:02:40;;;;;;;40.00;36.10;;;18.50;99.90;;;;;;4930932;29;20999;-72
2021/07/17 02:05:07;;;;;;;39.90;36.17;;;18.50;99.90;;;;;;4931760;29;20852;-73
2021/07/17 02:07:34;;;;;;;37.60;34.10;;;18.60;99.90;;;;;;4933847;29;20462;-72
2021/07/17 02:10:02;;;;;;;37.97;34.20;;;18.50;99.90;;;;;;4933841;29;20460;-72
2021/07/17 02:12:30;;;;;;;38.20;34.37;;;18.50;99.90;;;;;;4933416;29;20460;-72
2021/07/17 02:14:56;;;;;;;38.73;35.23;;;18.60;99.90;;;;;;4933460;29;20963;-72
2021/07/17 02:17:23;;;;;;;37.10;33.60;;;18.60;99.90;;;;;;4934444;29;20466;-73
2021/07/17 02:19:50;;;;;;;38.00;34.83;;;18.60;99.90;;;;;;4937600;29;20545;-73
2021/07/17 02:22:16;;;;;;;40.60;36.63;;;18.60;99.90;;;;;;4937801;29;20449;-73
2021/07/17 02:24:43;;;;;;;37.70;34.37;;;18.50;99.90;;;;;;4937354;29;20458;-73
2021/07/17 02:27:10;;;;;;;37.47;33.70;;;18.60;99.90;;;;;;4937331;29;20460;-72
2021/07/17 02:29:38;;;;;;;37.47;33.93;;;18.60;99.90;;;;;;4937441;29;20450;-73
2021/07/17 02:32:05;;;;;;;38.60;35.07;;;18.50;99.90;;;;;;4937570;29;20457;-73
2021/07/17 02:34:31;;;;;;;40.67;36.50;;;18.50;99.90;;;;;;4937481;29;20528;-72
2021/07/17 02:36:58;;;;;;;37.27;33.87;;;18.60;99.90;;;;;;4937222;29;20504;-73
2021/07/17 02:39:25;;;;;;;39.47;35.67;;;18.50;99.90;;;;;;4936972;29;20539;-72
2021/07/17 02:41:51;;;;;;;40.97;36.20;;;18.50;99.90;;;;;;4937087;29;20450;-73
2021/07/17 02:44:18;;;;;;;38.97;34.87;;;18.50;99.90;;;;;;4937207;29;20507;-73
2021/07/17 02:46:46;;;;;;;39.63;35.60;;;18.40;99.90;;;;;;4947473;28;20508;-72
2021/07/17 02:49:15;;;;;;;36.47;32.90;;;18.30;99.90;;;;;;4956269;29;20456;-73
2021/07/17 02:51:41;;;;;;;39.33;35.40;;;18.30;99.90;;;;;;4956153;29;20467;-73
2021/07/17 02:54:10;;;;;;;38.57;34.63;;;18.30;99.90;;;;;;4956081;29;20489;-73
2021/07/17 02:56:37;;;;;;;38.67;34.73;;;18.30;99.90;;;;;;4956149;29;20460;-73
2021/07/17 02:59:03;;;;;;;39.60;36.20;;;18.30;99.90;;;;;;4956348;29;20487;-73
2021/07/17 03:01:30;;;;;;;37.20;33.60;;;18.30;99.90;;;;;;4956146;29;20870;-72
2021/07/17 03:03:58;;;;;;;39.57;35.80;;;18.30;99.90;;;;;;4955903;29;20464;-72
2021/07/17 03:06:25;;;;;;;39.37;35.20;;;18.20;99.90;;;;;;4955685;29;20456;-72
2021/07/17 03:08:51;;;;;;;39.77;35.90;;;18.20;99.90;;;;;;4955841;29;20499;-73
2021/07/17 03:11:18;;;;;;;38.93;35.37;;;18.20;99.90;;;;;;4956002;29;20456;-73
2021/07/17 03:13:45;;;;;;;38.93;35.43;;;18.20;99.90;;;;;;4955822;29;20480;-73
2021/07/17 03:16:12;;;;;;;38.47;34.77;;;18.20;99.90;;;;;;4955796;29;20484;-73
2021/07/17 03:18:38;;;;;;;38.70;34.67;;;18.30;99.90;;;;;;4955513;29;20495;-73
2021/07/17 03:21:06;;;;;;;37.93;33.80;;;18.20;99.90;;;;;;4955708;29;20507;-73
2021/07/17 03:23:33;;;;;;;38.87;34.80;;;18.20;99.90;;;;;;4955911;29;20483;-73
2021/07/17 03:26:00;;;;;;;36.10;32.80;;;18.20;99.90;;;;;;4955533;29;20448;-73
2021/07/17 03:28:26;;;;;;;37.63;34.03;;;18.20;99.90;;;;;;4954904;28;20459;-73
2021/07/17 03:30:53;;;;;;;38.80;34.67;;;18.30;99.90;;;;;;4954927;29;20463;-73
2021/07/17 03:33:20;;;;;;;38.07;34.27;;;18.30;99.90;;;;;;4955619;29;20508;-74
2021/07/17 03:35:46;;;;;;;36.93;33.60;;;18.30;99.90;;;;;;4955554;29;20523;-73
2021/07/17 03:38:14;;;;;;;36.97;33.13;;;18.20;99.90;;;;;;4955340;29;20503;-73
2021/07/17 03:40:41;;;;;;;39.80;35.87;;;18.20;99.90;;;;;;4955328;29;21006;-73
2021/07/17 03:43:08;;;;;;;36.63;33.10;;;18.30;99.90;;;;;;4955202;29;20881;-73
2021/07/17 03:45:34;;;;;;;35.03;31.80;;;18.30;99.90;;;;;;4955140;29;20563;-74
2021/07/17 03:48:01;;;;;;;39.03;35.43;;;18.30;99.90;;;;;;4955356;29;20453;-73
2021/07/17 03:50:28;;;;;;;36.27;33.27;;;18.30;99.90;;;;;;4955107;29;20543;-74
2021/07/17 03:52:54;;;;;;;36.80;33.50;;;18.30;99.90;;;;;;4955037;29;21131;-74
2021/07/17 03:55:22;;;;;;;36.97;33.23;;;18.30;99.90;;;;;;4954949;29;20815;-74
2021/07/17 03:57:49;;;;;;;37.10;33.83;;;18.40;99.90;;;;;;4955089;29;20463;-73
2021/07/17 04:00:17;;;;;;;36.53;33.30;;;18.40;99.90;;;;;;4954950;29;20492;-73
2021/07/17 04:02:44;;;;;;;36.27;33.07;;;18.40;99.90;;;;;;4953528;29;20465;-74
2021/07/17 04:05:13;;;;;;;32.30;29.70;;;18.40;99.90;;;;;;4954608;29;20461;-72
2021/07/17 04:07:40;;;;;;;35.97;32.73;;;18.40;99.90;;;;;;4954562;29;20564;-72
2021/07/17 04:10:08;;;;;;;33.93;31.13;;;18.40;99.90;;;;;;4953267;29;20803;-72
2021/07/17 20:16:07;;;;;;;31.40;28.63;;;22.80;99.90;;;;;;4938524;26;20484;-74
2021/07/17 20:18:33;;;;;;;32.67;29.77;;;22.80;99.90;;;;;;4954188;29;20452;-74
2021/07/17 20:21:00;;;;;;;30.30;27.90;;;22.70;99.90;;;;;;4953472;29;20496;-73
2021/07/17 20:23:27;;;;;;;30.47;28.20;;;22.70;99.90;;;;;;4953686;29;20461;-74
2021/07/17 20:25:53;;;;;;;31.47;28.37;;;22.70;99.90;;;;;;4953622;29;20459;-75
2021/07/17 20:28:20;;;;;;;33.13;30.03;;;22.60;99.90;;;;;;4953951;29;20452;-74
2021/07/17 20:30:47;;;;;;;31.20;28.57;;;22.60;99.90;;;;;;4953723;29;20452;-74
2021/07/17 20:33:15;;;;;;;30.50;27.73;;;22.60;99.90;;;;;;4953600;29;20890;-74
2021/07/17 20:35:42;;;;;;;31.17;28.77;;;22.50;99.90;;;;;;4953435;29;20467;-74
2021/07/17 20:38:09;;;;;;;31.83;29.07;;;22.50;99.90;;;;;;4953311;29;20465;-73
2021/07/17 20:40:36;;;;;;;32.73;30.20;;;22.50;99.90;;;;;;4953680;29;20495;-74
2021/07/17 20:43:03;;;;;;;31.90;29.43;;;22.40;99.90;;;;;;4953715;29;20455;-76
2021/07/17 20:45:32;;;;;;;32.67;29.93;;;22.50;99.90;;;;;;4953303;29;20453;-73
2021/07/17 20:47:59;;;;;;;32.57;29.67;;;22.40;99.90;;;;;;4951287;29;20456;-76
2021/07/17 20:50:28;;;;;;;33.80;30.63;;;22.40;99.90;;;;;;4949120;29;20499;-76
2021/07/17 20:52:55;;;;;;;33.77;31.13;;;22.40;99.90;;;;;;4952710;29;20852;-74
2021/07/17 20:55:22;;;;;;;37.23;33.83;;;22.30;99.90;;;;;;4952676;29;20477;-73
2021/07/17 20:57:52;;;;;;;33.40;30.80;;;22.20;99.90;;;;;;4953092;29;20464;-75
2021/07/17 21:00:20;;;;;;;32.20;29.57;;;22.20;99.90;;;;;;4952912;29;20563;-76
2021/07/17 21:02:47;;;;;;;35.17;32.27;;;22.20;99.90;;;;;;4953111;29;20459;-75
2021/07/17 21:05:16;;;;;;;34.70;31.90;;;22.10;99.90;;;;;;4952642;29;20823;-76
2021/07/17 21:07:45;;;;;;;35.17;32.27;;;22.10;99.90;;;;;;4952421;29;20456;-75
2021/07/17 21:10:15;;;;;;;34.33;31.43;;;22.00;99.90;;;;;;4952426;29;20885;-76
2021/07/17 21:12:42;;;;;;;36.30;32.60;;;22.00;99.90;;;;;;4952616;29;20485;-76
2021/07/17 21:15:11;;;;;;;34.87;32.30;;;21.90;99.90;;;;;;4945811;29;20544;-75
2021/07/17 21:17:37;;;;;;;36.73;33.80;;;21.80;99.90;;;;;;4933553;29;20453;-76
2021/07/17 21:20:05;;;;;;;34.57;31.70;;;21.70;99.90;;;;;;4933551;29;20895;-76
2021/07/17 21:22:32;;;;;;;35.07;32.07;;;21.70;99.90;;;;;;4933038;29;20461;-76
2021/07/17 21:25:00;;;;;;;34.13;31.33;;;21.60;99.90;;;;;;4931959;29;20480;-76
2021/07/17 21:27:26;;;;;;;34.37;31.50;;;21.60;99.90;;;;;;4933550;29;20466;-76
2021/07/17 21:29:53;;;;;;;34.77;31.60;;;21.50;99.90;;;;;;4933670;29;20453;-77
2021/07/17 21:32:20;;;;;;;34.17;31.30;;;21.50;99.90;;;;;;4933730;29;20450;-76
2021/07/17 21:34:47;;;;;;;37.80;34.57;;;21.30;99.90;;;;;;4933527;29;20457;-76
2021/07/17 21:37:13;;;;;;;35.57;32.67;;;21.30;99.90;;;;;;4933424;29;20959;-76
2021/07/17 21:39:40;;;;;;;36.00;33.00;;;21.10;99.90;;;;;;4933253;29;20536;-76
2021/07/17 21:42:08;;;;;;;35.90;33.13;;;21.00;99.90;;;;;;4933614;29;20454;-76
2021/07/17 21:44:35;;;;;;;39.30;36.10;;;20.90;99.90;;;;;;4933531;29;20456;-76
2021/07/17 21:47:02;;;;;;;37.87;34.60;;;20.80;99.90;;;;;;4933393;29;21080;-77
2021/07/17 21:49:31;;;;;;;37.37;34.43;;;20.70;99.90;;;;;;4931597;29;20823;-76
2021/07/17 21:51:58;;;;;;;34.63;31.93;;;20.70;99.90;;;;;;4933161;29;20752;-77
2021/07/17 21:54:24;;;;;;;37.80;33.90;;;20.60;99.90;;;;;;4933126;29;20513;-76
2021/07/17 21:56:51;;;;;;;38.23;34.63;;;20.60;99.90;;;;;;4933469;29;20461;-75
2021/07/17 21:59:19;;;;;;;35.73;32.33;;;20.50;99.90;;;;;;4933298;29;20664;-75
2021/07/17 22:01:46;;;;;;;32.33;29.97;;;20.60;99.90;;;;;;4933115;29;20497;-76
2021/07/17 22:04:13;;;;;;;34.20;31.20;;;20.50;99.90;;;;;;4933530;29;20502;-75
2021/07/17 22:06:39;;;;;;;31.93;29.33;;;20.60;99.90;;;;;;4933302;29;20469;-76
2021/07/17 22:09:07;;;;;;;33.43;30.53;;;20.50;99.90;;;;;;4933182;29;20468;-76
2021/07/17 22:11:33;;;;;;;32.93;30.53;;;20.60;99.90;;;;;;4933163;29;20458;-76
2021/07/17 22:14:00;;;;;;;29.63;27.23;;;20.50;99.90;;;;;;4932825;29;20541;-76
2021/07/17 22:16:28;;;;;;;32.07;28.80;;;20.50;99.90;;;;;;4949487;29;20907;-77
2021/07/17 22:18:55;;;;;;;33.30;30.53;;;20.50;99.90;;;;;;4952043;29;20507;-76
2021/07/17 22:21:22;;;;;;;30.43;28.03;;;20.60;99.90;;;;;;4952410;29;20485;-76
2021/07/17 22:23:49;;;;;;;30.67;28.27;;;20.50;99.90;;;;;;4952156;29;20533;-76
2021/07/17 22:26:16;;;;;;;32.67;30.27;;;20.50;99.90;;;;;;4952195;29;20461;-77
2021/07/17 22:28:43;;;;;;;33.07;30.33;;;20.50;99.90;;;;;;4951799;29;20517;-76
2021/07/17 22:31:10;;;;;;;30.97;28.63;;;20.50;99.90;;;;;;4951975;29;20988;-77
2021/07/17 22:33:40;;;;;;;31.87;29.30;;;20.40;99.90;;;;;;4952207;28;20947;-77
2021/07/17 22:36:07;;;;;;;32.73;29.83;;;20.30;99.90;;;;;;4956337;29;20801;-76
2021/07/17 22:38:33;;;;;;;33.27;30.50;;;20.20;99.90;;;;;;4955923;29;20456;-77
2021/07/17 22:41:00;;;;;;;32.60;29.93;;;20.20;99.90;;;;;;4955629;29;20500;-76
2021/07/17 22:43:27;;;;;;;32.27;29.77;;;20.20;99.90;;;;;;4955648;29;20448;-76
2021/07/17 22:45:54;;;;;;;33.03;30.33;;;20.20;99.90;;;;;;4955579;29;20503;-77
2021/07/17 22:48:21;;;;;;;32.07;29.60;;;20.10;99.90;;;;;;4955777;29;20452;-76
2021/07/17 22:50:49;;;;;;;29.47;27.47;;;20.10;99.90;;;;;;4955598;29;20456;-77
2021/07/17 22:53:16;;;;;;;31.13;28.73;;;20.10;99.90;;;;;;4955604;29;20456;-76
2021/07/17 22:55:43;;;;;;;30.70;28.30;;;20.00;99.90;;;;;;4955510;29;20875;-76
2021/07/17 22:58:10;;;;;;;31.27;28.87;;;20.00;99.90;;;;;;4955457;29;20452;-76
2021/07/17 23:00:39;;;;;;;29.13;26.60;;;19.90;99.90;;;;;;4955464;29;20515;-75
2021/07/17 23:03:06;;;;;;;31.17;28.70;;;19.90;99.90;;;;;;4955694;29;20444;-75
2021/07/17 23:05:33;;;;;;;30.97;28.50;;;19.90;99.90;;;;;;4955681;29;20463;-75
2021/07/17 23:08:04;;;;;;;32.03;29.50;;;19.90;99.90;;;;;;4955272;29;20460;-76
2021/07/17 23:10:33;;;;;;;34.33;31.43;;;19.80;99.90;;;;;;4955162;29;21049;-75
2021/07/17 23:13:00;;;;;;;33.50;30.60;;;19.80;99.90;;;;;;4955265;29;20480;-75
2021/07/17 23:15:27;;;;;;;32.80;29.83;;;19.60;99.90;;;;;;4954935;29;21037;-75
2021/07/17 23:17:54;;;;;;;34.20;30.93;;;19.60;99.90;;;;;;4955071;29;20539;-76
2021/07/17 23:20:21;;;;;;;34.37;31.80;;;19.60;99.90;;;;;;4955296;29;20495;-75
2021/07/17 23:22:48;;;;;;;32.73;30.20;;;19.50;99.90;;;;;;4955162;29;20452;-76
2021/07/17 23:25:16;;;;;;;34.97;32.13;;;19.50;99.90;;;;;;4954966;29;20471;-76
2021/07/17 23:27:44;;;;;;;32.97;30.00;;;19.50;99.90;;;;;;4955012;29;20456;-76
2021/07/17 23:30:12;;;;;;;35.63;32.43;;;19.50;99.90;;;;;;4954900;29;20511;-76
2021/07/17 23:32:38;;;;;;;33.70;30.90;;;19.50;99.90;;;;;;4955067;29;20452;-76
2021/07/17 23:35:06;;;;;;;32.27;29.97;;;19.40;99.90;;;;;;4954986;29;20480;-76
2021/07/17 23:37:34;;;;;;;35.67;32.57;;;19.40;99.90;;;;;;4955134;29;20464;-76
2021/07/17 23:40:01;;;;;;;34.43;31.67;;;19.40;99.90;;;;;;4954692;29;20965;-77
2021/07/17 23:42:29;;;;;;;35.60;32.27;;;19.30;99.90;;;;;;4954815;29;20460;-77
2021/07/17 23:44:56;;;;;;;36.00;33.30;;;19.30;99.90;;;;;;4954561;28;20456;-77
2021/07/17 23:47:23;;;;;;;36.43;33.30;;;19.30;99.90;;;;;;4953489;29;20487;-76
2021/07/17 23:49:49;;;;;;;36.27;32.93;;;19.20;99.90;;;;;;4954773;29;20507;-77
2021/07/17 23:52:16;;;;;;;36.40;33.30;;;19.20;99.90;;;;;;4954490;29;20456;-78
2021/07/17 23:54:43;;;;;;;37.07;33.73;;;19.10;99.90;;;;;;4954324;29;20857;-78
2021/07/17 23:57:10;;;;;;;37.13;33.30;;;19.10;99.90;;;;;;4954560;29;20453;-77
2021/07/17 23:59:38;;;;;;;37.03;34.00;;;19.10;99.90;;;;;;4954569;29;20463;-76
